createdAt,value
2023-03-06T00:00:28.418Z,100159.50
2023-03-06T00:02:55.269Z,100159.38
2023-03-06T00:05:22.132Z,100155.00
2023-03-06T00:07:48.689Z,100154.16
2023-03-06T00:10:17.804Z,100148.13
2023-03-06T00:12:44.555Z,100151.53
2023-03-06T00:15:13.593Z,100145.19
2023-03-06T00:17:40.707Z,100113.94
2023-03-06T00:20:09.396Z,100116.16
2023-03-06T00:22:35.940Z,100141.66
2023-03-06T00:25:02.492Z,100126.00
2023-03-06T00:27:30.678Z,100130.38
2023-03-06T00:29:57.944Z,100126.63
2023-03-06T00:32:27.414Z,100124.00
2023-03-06T00:34:55.638Z,100120.50
2023-03-06T00:37:23.575Z,100114.78
2023-03-06T00:39:50.562Z,100118.84
2023-03-06T00:42:17.937Z,100123.88
2023-03-06T00:44:45.044Z,100124.28
2023-03-06T00:47:12.114Z,100113.63
2023-03-06T00:49:40.073Z,100113.00
2023-03-06T00:52:06.956Z,100098.28
2023-03-06T00:54:33.503Z,100113.25
2023-03-06T00:57:00.128Z,100114.34
2023-03-06T00:59:26.730Z,100107.31
2023-03-06T01:01:53.503Z,100108.25
2023-03-06T01:04:20.150Z,100104.31
2023-03-06T01:06:49.713Z,100105.53
2023-03-06T01:09:16.288Z,100089.34
2023-03-06T01:11:43.056Z,100089.88
2023-03-06T01:14:11.052Z,100089.56
2023-03-06T01:16:37.699Z,100090.81
2023-03-06T01:19:04.378Z,100090.81
2023-03-06T01:21:31.111Z,100087.06
2023-03-06T01:23:59.891Z,100067.44
2023-03-06T01:26:26.769Z,100080.91
2023-03-06T01:28:53.340Z,100082.03
2023-03-06T01:31:20.060Z,100061.94
2023-03-06T01:33:46.887Z,100075.03
2023-03-06T01:36:14.087Z,100069.56
2023-03-06T01:38:40.665Z,100068.59
2023-03-06T01:41:09.406Z,100048.34
2023-03-06T01:43:38.803Z,100038.84
2023-03-06T01:46:29.391Z,100055.56
2023-03-06T01:48:59.214Z,100055.56
2023-03-06T01:51:30.321Z,100051.94
2023-03-06T01:53:59.708Z,100034.38
2023-03-06T01:56:28.648Z,100041.69
2023-03-06T01:58:56.041Z,100042.44
2023-03-06T02:01:23.351Z,100023.13
2023-03-06T02:03:51.059Z,100017.06
2023-03-06T02:06:18.144Z,100040.47
2023-03-06T02:08:45.122Z,100026.25
2023-03-06T02:11:14.314Z,100027.63
2023-03-06T02:13:43.332Z,100026.59
2023-03-06T02:16:10.960Z,100002.44
2023-03-06T02:18:39.862Z,100015.75
2023-03-06T02:21:08.547Z,100026.59
2023-03-06T02:23:45.696Z,100012.47
2023-03-06T02:26:14.860Z,100022.31
2023-03-06T02:28:41.798Z,99987.34
2023-03-06T02:31:16.955Z,100019.81
2023-03-06T02:33:43.666Z,100012.09
2023-03-06T02:36:15.711Z,99976.25
2023-03-06T02:38:47.511Z,99989.03
2023-03-06T02:41:15.689Z,100003.41
2023-03-06T02:43:43.866Z,99999.25
2023-03-06T02:46:10.642Z,99980.59
2023-03-06T02:48:37.307Z,99951.53
2023-03-06T02:51:03.952Z,99969.50
2023-03-06T02:53:32.144Z,99989.47
2023-03-06T02:55:59.866Z,99981.72
2023-03-06T02:58:27.936Z,99968.06
2023-03-06T03:00:54.661Z,99987.59
2023-03-06T03:03:21.369Z,99978.94
2023-03-06T03:05:48.041Z,99979.78
2023-03-06T03:08:22.647Z,99960.47
2023-03-06T03:10:52.645Z,99953.69
2023-03-06T03:13:19.861Z,99983.22
2023-03-06T03:15:59.036Z,99978.72
2023-03-06T03:18:25.769Z,99970.09
2023-03-06T03:20:53.480Z,99970.09
2023-03-06T03:23:20.225Z,99965.69
2023-03-06T03:25:46.767Z,99964.75
2023-03-06T03:28:13.695Z,99914.03
2023-03-06T03:30:41.328Z,99960.59
2023-03-06T03:33:10.865Z,99966.00
2023-03-06T03:35:38.461Z,99960.59
2023-03-06T03:38:05.151Z,99917.78
2023-03-06T03:40:31.743Z,99963.06
2023-03-06T03:42:59.240Z,99952.03
2023-03-06T03:45:25.891Z,99952.97
2023-03-06T03:47:52.568Z,99942.09
2023-03-06T03:50:22.611Z,99934.50
2023-03-06T03:52:49.764Z,99952.88
2023-03-06T03:55:16.599Z,99950.16
2023-03-06T03:57:43.211Z,99944.81
2023-03-06T04:00:11.867Z,99925.63
2023-03-06T04:02:41.648Z,99939.53
2023-03-06T04:05:21.388Z,99934.31
2023-03-06T04:07:48.651Z,99920.34
2023-03-06T04:10:16.199Z,99919.06
2023-03-06T04:12:43.716Z,99917.53
2023-03-06T04:15:11.526Z,99926.91
2023-03-06T04:17:38.895Z,99905.84
2023-03-06T04:20:09.943Z,99906.88
2023-03-06T04:22:38.131Z,99924.63
2023-03-06T04:25:05.479Z,99922.00
2023-03-06T04:27:32.159Z,99925.38
2023-03-06T04:29:58.990Z,99918.25
2023-03-06T04:32:26.073Z,99879.47
2023-03-06T04:34:52.718Z,99909.19
2023-03-06T04:37:21.694Z,99911.59
2023-03-06T04:39:50.094Z,99905.03
2023-03-06T04:42:16.961Z,99907.72
2023-03-06T04:44:43.515Z,99897.38
2023-03-06T04:47:10.443Z,99898.31
2023-03-06T04:49:37.144Z,99888.03
2023-03-06T04:52:04.220Z,99891.34
2023-03-06T04:54:31.175Z,99869.03
2023-03-06T04:57:00.338Z,99881.22
2023-03-06T04:59:27.237Z,99865.25
2023-03-06T05:01:54.248Z,99883.31
2023-03-06T05:04:20.901Z,99886.88
2023-03-06T05:06:47.474Z,99884.06
2023-03-06T05:09:14.010Z,99862.97
2023-03-06T05:11:40.861Z,99883.09
2023-03-06T05:14:08.870Z,99878.94
2023-03-06T05:16:35.538Z,99870.06
2023-03-06T05:19:02.093Z,99871.03
2023-03-06T05:21:28.748Z,99871.03
2023-03-06T05:23:55.300Z,99873.72
2023-03-06T05:26:22.025Z,99860.59
2023-03-06T05:28:48.548Z,99862.38
2023-03-06T05:31:16.883Z,99867.78
2023-03-06T05:33:43.550Z,99867.03
2023-03-06T05:36:11.187Z,99870.72
2023-03-06T05:38:38.016Z,99868.00
2023-03-06T05:41:05.042Z,99866.09
2023-03-06T05:43:31.580Z,99868.53
2023-03-06T05:46:02.173Z,99871.03
2023-03-06T05:48:30.283Z,99872.66
2023-03-06T05:50:57.109Z,99868.84
2023-03-06T05:53:23.685Z,99873.94
2023-03-06T05:55:56.446Z,99873.00
2023-03-06T05:58:23.203Z,99866.75
2023-03-06T06:00:49.700Z,99874.44
2023-03-06T06:03:16.394Z,99863.63
2023-03-06T06:05:44.344Z,99859.13
2023-03-06T06:08:10.945Z,99869.13
2023-03-06T06:10:38.184Z,99872.06
2023-03-06T06:13:04.840Z,99871.13
2023-03-06T06:15:31.484Z,99876.25
2023-03-06T06:17:58.224Z,99875.19
2023-03-06T06:20:25.355Z,99868.84
2023-03-06T06:22:53.380Z,99872.81
2023-03-06T06:25:19.997Z,99878.44
2023-03-06T06:27:46.659Z,99867.25
2023-03-06T06:30:13.515Z,99873.84
2023-03-06T06:32:40.253Z,99872.81
2023-03-06T06:35:07.394Z,99868.41
2023-03-06T06:37:34.014Z,99863.50
2023-03-06T06:40:01.940Z,99869.97
2023-03-06T06:42:36.961Z,99868.94
2023-03-06T06:45:06.815Z,99862.38
2023-03-06T06:47:33.348Z,99872.81
2023-03-06T06:49:59.998Z,99867.34
2023-03-06T06:52:26.655Z,99868.41
2023-03-06T06:54:53.505Z,99872.38
2023-03-06T06:57:21.389Z,99860.59
2023-03-06T06:59:48.023Z,99869.03
2023-03-06T07:02:15.448Z,99866.53
2023-03-06T07:05:00.426Z,99872.47
2023-03-06T07:07:29.088Z,99851.81
2023-03-06T07:09:55.827Z,99878.84
2023-03-06T07:12:23.803Z,99876.13
2023-03-06T07:14:50.429Z,99882.16
2023-03-06T07:17:17.058Z,99882.06
2023-03-06T07:19:43.568Z,99886.97
2023-03-06T07:22:10.362Z,99855.69
2023-03-06T07:24:36.916Z,99872.81
2023-03-06T07:27:03.640Z,99860.28
2023-03-06T07:29:31.559Z,99866.34
2023-03-06T07:31:58.196Z,99884.25
2023-03-06T07:34:24.801Z,99886.63
2023-03-06T07:36:51.431Z,99885.59
2023-03-06T07:39:18.339Z,99885.09
2023-03-06T07:41:44.972Z,99869.78
2023-03-06T07:44:11.589Z,99877.88
2023-03-06T07:46:39.592Z,99880.28
2023-03-06T07:49:06.118Z,99889.78
2023-03-06T07:51:32.854Z,99880.91
2023-03-06T07:53:59.408Z,99884.44
2023-03-06T07:56:26.085Z,99883.84
2023-03-06T07:58:52.907Z,99888.53
2023-03-06T08:01:21.498Z,99882.56
2023-03-06T08:03:49.707Z,99888.44
2023-03-06T08:06:18.499Z,99886.03
2023-03-06T08:08:46.606Z,99879.88
2023-03-06T08:11:15.187Z,99889.66
2023-03-06T08:13:42.237Z,99885.28
2023-03-06T08:16:09.766Z,99888.28
2023-03-06T08:18:36.486Z,99888.63
2023-03-06T08:21:06.656Z,99890.19
2023-03-06T08:23:33.935Z,99886.53
2023-03-06T08:26:02.958Z,99872.88
2023-03-06T08:28:29.861Z,99889.44
2023-03-06T08:30:57.700Z,99887.25
2023-03-06T08:33:24.327Z,99892.88
2023-03-06T08:35:52.114Z,99893.91
2023-03-06T08:38:20.024Z,99894.13
2023-03-06T08:40:46.813Z,99886.81
2023-03-06T08:43:14.365Z,99892.84
2023-03-06T08:45:41.021Z,99884.25
2023-03-06T08:48:07.754Z,99888.00
2023-03-06T08:50:34.343Z,99894.88
2023-03-06T08:53:00.854Z,99881.50
2023-03-06T08:55:28.933Z,99889.84
2023-03-06T08:57:55.464Z,99891.19
2023-03-06T09:00:22.538Z,99891.78
2023-03-06T09:02:49.120Z,99899.16
2023-03-06T09:05:15.835Z,99894.06
2023-03-06T09:07:42.389Z,99895.22
2023-03-06T09:10:14.989Z,99890.00
2023-03-06T09:12:50.095Z,99896.69
2023-03-06T09:15:17.938Z,99895.72
2023-03-06T09:17:44.525Z,99896.69
2023-03-06T09:20:12.342Z,99898.91
2023-03-06T09:22:38.946Z,99900.59
2023-03-06T09:25:08.378Z,99897.97
2023-03-06T09:27:35.041Z,99895.72
2023-03-06T09:30:03.950Z,99887.28
2023-03-06T09:32:30.527Z,99895.63
2023-03-06T09:34:57.143Z,99891.97
2023-03-06T09:37:23.726Z,99889.59
2023-03-06T09:39:50.325Z,99890.00
2023-03-06T09:42:20.123Z,99891.94
2023-03-06T09:44:51.900Z,99897.00
2023-03-06T09:47:48.989Z,99878.50
2023-03-06T09:50:26.258Z,99893.56
2023-03-06T09:53:15.411Z,99895.78
2023-03-06T09:55:45.757Z,99899.22
2023-03-06T09:58:16.201Z,99897.94
2023-03-06T10:00:50.967Z,99896.19
2023-03-06T10:03:24.576Z,99891.69
2023-03-06T10:05:57.150Z,99894.69
2023-03-06T10:08:28.588Z,99888.72
2023-03-06T10:11:00.177Z,99891.72
2023-03-06T10:13:32.537Z,99886.13
2023-03-06T10:16:06.922Z,99868.75
2023-03-06T10:18:35.046Z,99891.81
2023-03-06T10:21:18.804Z,99897.13
2023-03-06T10:23:52.828Z,99880.88
2023-03-06T10:26:22.542Z,99890.63
2023-03-06T10:28:56.941Z,99896.03
2023-03-06T10:31:26.326Z,99890.53
2023-03-06T10:33:56.879Z,99861.03
2023-03-06T10:36:26.055Z,99895.56
2023-03-06T10:38:53.784Z,99888.03
2023-03-06T10:41:25.123Z,99893.03
2023-03-06T10:44:18.023Z,99890.53
2023-03-06T10:46:46.346Z,99881.50
2023-03-06T10:49:29.399Z,99894.16
2023-03-06T10:51:57.862Z,99879.50
2023-03-06T10:54:25.258Z,99883.69
2023-03-06T10:56:51.881Z,99877.38
2023-03-06T10:59:20.506Z,99873.34
2023-03-06T11:01:48.798Z,99879.41
2023-03-06T11:04:22.842Z,99864.28
2023-03-06T11:07:05.788Z,99877.84
2023-03-06T11:09:33.197Z,99879.41
2023-03-06T11:12:20.436Z,99879.06
2023-03-06T11:14:47.076Z,99875.97
2023-03-06T11:17:27.616Z,99880.81
2023-03-06T11:20:15.388Z,99868.66
2023-03-06T11:22:49.240Z,99881.06
2023-03-06T11:25:19.036Z,99836.19
2023-03-06T11:27:49.212Z,99863.97
2023-03-06T11:30:20.234Z,99853.97
2023-03-06T11:32:51.191Z,99864.78
2023-03-06T11:35:24.525Z,99849.78
2023-03-06T11:37:56.210Z,99863.38
2023-03-06T11:40:28.246Z,99858.09
2023-03-06T11:43:03.001Z,99856.09
2023-03-06T11:45:34.392Z,99851.00
2023-03-06T11:48:14.753Z,99848.47
2023-03-06T11:50:43.655Z,99848.72
2023-03-06T11:53:14.523Z,99843.22
2023-03-06T11:55:49.912Z,99841.06
2023-03-06T11:58:38.333Z,99839.19
2023-03-06T12:01:09.135Z,99841.69
2023-03-06T12:04:07.062Z,99810.41
2023-03-06T12:06:45.678Z,99840.41
2023-03-06T12:09:24.747Z,99837.09
2023-03-06T12:12:03.844Z,99838.28
2023-03-06T12:14:45.429Z,99839.94
2023-03-06T12:17:20.979Z,99832.31
2023-03-06T12:20:00.573Z,99830.66
2023-03-06T12:22:41.661Z,99835.41
2023-03-06T12:25:42.218Z,99827.44
2023-03-06T12:28:31.005Z,99829.34
2023-03-06T12:31:22.483Z,99817.09
2023-03-06T12:34:01.032Z,99814.34
2023-03-06T12:36:38.495Z,99816.72
2023-03-06T12:39:17.033Z,99804.09
2023-03-06T12:41:57.620Z,99827.56
2023-03-06T12:44:49.574Z,99823.38
2023-03-06T12:47:19.954Z,99802.91
2023-03-06T12:49:53.120Z,99821.25
2023-03-06T12:52:29.646Z,99814.47
2023-03-06T12:54:58.395Z,99826.50
2023-03-06T12:57:26.616Z,99821.84
2023-03-06T12:59:54.206Z,99825.66
2023-03-06T13:03:05.076Z,99829.69
2023-03-06T13:05:42.513Z,99799.38
2023-03-06T13:08:35.430Z,99814.47
2023-03-06T13:11:28.019Z,99817.69
2023-03-06T13:13:56.801Z,99815.44
2023-03-06T13:16:28.943Z,99819.59
2023-03-06T13:19:03.914Z,99812.56
2023-03-06T13:22:01.899Z,99808.50
2023-03-06T13:24:30.598Z,99799.81
2023-03-06T13:27:03.421Z,99798.38
2023-03-06T13:29:52.404Z,99799.66
2023-03-06T13:32:30.037Z,99801.91
2023-03-06T13:34:56.709Z,99790.72
2023-03-06T13:37:48.476Z,99784.97
2023-03-06T13:40:34.432Z,99764.06
2023-03-06T13:43:21.786Z,99789.28
2023-03-06T13:45:49.968Z,99789.38
2023-03-06T13:48:44.402Z,99781.47
2023-03-06T13:51:22.852Z,99789.44
2023-03-06T13:54:30.293Z,99791.78
2023-03-06T13:57:23.029Z,99785.72
2023-03-06T14:00:34.305Z,99755.28
2023-03-06T14:03:27.086Z,99784.97
2023-03-06T14:05:53.867Z,99756.44
2023-03-06T14:08:22.680Z,99782.81
2023-03-06T14:11:00.597Z,99776.16
2023-03-06T14:13:41.877Z,99770.41
2023-03-06T14:16:19.844Z,99757.94
2023-03-06T14:18:51.129Z,99771.31
2023-03-06T14:21:28.018Z,99770.75
2023-03-06T14:24:00.552Z,99774.00
2023-03-06T14:26:31.706Z,99775.44
2023-03-06T14:28:59.683Z,99770.53
2023-03-06T14:31:30.129Z,99743.69
2023-03-06T14:33:59.980Z,99754.44
2023-03-06T14:36:33.808Z,99750.38
2023-03-06T14:39:02.979Z,99764.25
2023-03-06T14:41:31.545Z,99761.75
2023-03-06T14:44:08.727Z,99761.47
2023-03-06T14:46:35.910Z,99761.41
2023-03-06T14:49:07.318Z,99718.28
2023-03-06T14:51:40.663Z,99749.28
2023-03-06T14:54:14.091Z,99767.69
2023-03-06T14:56:42.134Z,99758.41
2023-03-06T14:59:13.753Z,99749.09
2023-03-06T15:01:42.145Z,99765.25
2023-03-06T15:04:19.822Z,99745.28
2023-03-06T15:06:46.691Z,99756.34
2023-03-06T15:09:17.069Z,99763.72
2023-03-06T15:11:55.785Z,99749.34
2023-03-06T15:14:30.326Z,99762.06
2023-03-06T15:17:14.278Z,99738.31
2023-03-06T15:19:42.494Z,99768.16
2023-03-06T15:22:25.364Z,99766.72
2023-03-06T15:24:52.302Z,99767.00
2023-03-06T15:27:26.735Z,99765.22
2023-03-06T15:29:53.398Z,99761.31
2023-03-06T15:32:30.351Z,99768.88
2023-03-06T15:35:30.622Z,99758.53
2023-03-06T15:37:58.219Z,99699.75
2023-03-06T15:40:26.174Z,99754.28
2023-03-06T15:42:53.372Z,99764.63
2023-03-06T15:45:22.161Z,99714.63
2023-03-06T15:47:51.021Z,99761.66
2023-03-06T15:50:19.651Z,99762.50
2023-03-06T15:52:48.770Z,99755.50
2023-03-06T15:55:18.248Z,99766.53
2023-03-06T15:57:49.692Z,99769.53
2023-03-06T16:00:27.561Z,99740.41
2023-03-06T16:02:55.046Z,99764.91
2023-03-06T16:05:22.479Z,99702.75
2023-03-06T16:07:50.677Z,99747.31
2023-03-06T16:10:19.227Z,99729.22
2023-03-06T16:12:49.301Z,99741.69
2023-03-06T16:15:18.979Z,99738.84
2023-03-06T16:17:46.131Z,99726.63
2023-03-06T16:20:17.841Z,99737.09
2023-03-06T16:22:45.261Z,99739.19
2023-03-06T16:25:13.741Z,99736.72
2023-03-06T16:27:40.447Z,99736.59
2023-03-06T16:30:11.632Z,99734.94
2023-03-06T16:32:38.246Z,99736.00
2023-03-06T16:35:05.393Z,99716.78
2023-03-06T16:37:32.169Z,99729.22
2023-03-06T16:39:59.114Z,99727.59
2023-03-06T16:42:27.504Z,99724.97
2023-03-06T16:44:54.250Z,99725.91
2023-03-06T16:47:20.920Z,99721.38
2023-03-06T16:49:47.508Z,99731.63
2023-03-06T16:52:14.443Z,99726.63
2023-03-06T16:54:42.399Z,99728.66
2023-03-06T16:57:13.913Z,99729.81
2023-03-06T16:59:42.364Z,99711.78
2023-03-06T17:02:09.800Z,99730.91
2023-03-06T17:04:36.630Z,99726.16
2023-03-06T17:07:03.691Z,99705.94
2023-03-06T17:09:30.941Z,99730.66
2023-03-06T17:11:57.630Z,99695.13
2023-03-06T17:14:24.161Z,99723.88
2023-03-06T17:16:53.773Z,99699.03
2023-03-06T17:19:20.901Z,99722.66
2023-03-06T17:21:49.951Z,99724.06
2023-03-06T17:24:16.488Z,99701.59
2023-03-06T17:26:43.070Z,99718.72
2023-03-06T17:29:09.592Z,99704.16
2023-03-06T17:31:36.188Z,99721.41
2023-03-06T17:34:04.042Z,99724.00
2023-03-06T17:36:31.700Z,99702.47
2023-03-06T17:38:59.863Z,99722.06
2023-03-06T17:41:26.806Z,99721.91
2023-03-06T17:43:55.957Z,99723.41
2023-03-06T17:46:22.764Z,99718.75
2023-03-06T17:48:49.722Z,99721.50
2023-03-06T17:51:18.126Z,99718.25
2023-03-06T17:53:44.854Z,99710.66
2023-03-06T17:56:13.836Z,99702.22
2023-03-06T17:58:40.512Z,99699.22
2023-03-06T18:01:11.268Z,99699.66
2023-03-06T18:03:38.720Z,99687.00
2023-03-06T18:06:05.996Z,99665.19
2023-03-06T18:08:33.955Z,99695.38
2023-03-06T18:11:01.222Z,99704.47
2023-03-06T18:13:27.836Z,99688.66
2023-03-06T18:15:54.405Z,99699.78
2023-03-06T18:18:21.124Z,99682.63
2023-03-06T18:20:47.899Z,99686.69
2023-03-06T18:23:14.492Z,99698.03
2023-03-06T18:25:42.430Z,99691.63
2023-03-06T18:28:09.179Z,99692.16
2023-03-06T18:30:36.092Z,99684.66
2023-03-06T18:33:02.834Z,99675.78
2023-03-06T18:35:29.411Z,99687.78
2023-03-06T18:37:56.433Z,99684.34
2023-03-06T18:40:24.793Z,99682.91
2023-03-06T18:42:53.191Z,99684.88
2023-03-06T18:45:20.192Z,99680.81
2023-03-06T18:47:46.967Z,99680.41
2023-03-06T18:50:13.480Z,99685.63
2023-03-06T18:52:40.069Z,99688.53
2023-03-06T18:55:07.094Z,99674.88
2023-03-06T18:57:33.771Z,99676.75
2023-03-06T19:00:01.955Z,99684.88
2023-03-06T19:02:28.910Z,99681.56
2023-03-06T19:04:55.439Z,99678.13
2023-03-06T19:07:22.469Z,99671.66
2023-03-06T19:09:49.068Z,99672.91
2023-03-06T19:12:16.202Z,99673.22
2023-03-06T19:14:43.022Z,99671.97
2023-03-06T19:17:11.187Z,99675.63
2023-03-06T19:19:39.305Z,99675.94
2023-03-06T19:22:05.995Z,99678.63
2023-03-06T19:24:32.573Z,99672.50
2023-03-06T19:26:59.244Z,99675.19
2023-03-06T19:29:25.878Z,99660.06
2023-03-06T19:31:52.658Z,99667.19
2023-03-06T19:34:20.543Z,99663.00
2023-03-06T19:36:49.943Z,99648.13
2023-03-06T19:39:16.510Z,99660.59
2023-03-06T19:41:43.147Z,99655.63
2023-03-06T19:44:09.668Z,99648.41
2023-03-06T19:46:36.367Z,99642.59
2023-03-06T19:49:04.427Z,99646.88
2023-03-06T19:51:32.577Z,99641.66
2023-03-06T19:53:59.105Z,99641.75
2023-03-06T19:56:30.287Z,99639.06
2023-03-06T19:58:57.421Z,99620.09
2023-03-06T20:01:26.290Z,99639.06
2023-03-06T20:03:54.342Z,99633.75
2023-03-06T20:06:20.846Z,99596.91
2023-03-06T20:08:48.935Z,99626.47
2023-03-06T20:11:17.679Z,99588.97
2023-03-06T20:13:47.498Z,99619.69
2023-03-06T20:16:14.373Z,99617.09
2023-03-06T20:18:40.923Z,99616.16
2023-03-06T20:21:07.724Z,99619.50
2023-03-06T20:23:35.046Z,99607.09
2023-03-06T20:26:04.593Z,99587.22
2023-03-06T20:28:31.216Z,99609.28
2023-03-06T20:30:58.285Z,99607.41
2023-03-06T20:33:24.915Z,99603.88
2023-03-06T20:35:51.446Z,99579.81
2023-03-06T20:38:19.895Z,99587.13
2023-03-06T20:40:48.266Z,99574.84
2023-03-06T20:43:16.181Z,99585.44
2023-03-06T20:45:42.756Z,99590.75
2023-03-06T20:48:09.290Z,99579.00
2023-03-06T20:50:35.816Z,99595.00
2023-03-06T20:53:02.345Z,99585.13
2023-03-06T20:55:28.899Z,99590.22
2023-03-06T20:57:55.393Z,99586.38
2023-03-06T21:00:23.253Z,99568.81
2023-03-06T21:02:49.792Z,99572.00
2023-03-06T21:05:16.550Z,99563.38
2023-03-06T21:07:43.140Z,99561.72
2023-03-06T21:10:10.501Z,99511.06
2023-03-06T21:12:36.998Z,99560.88
2023-03-06T21:15:04.246Z,99569.84
2023-03-06T21:17:32.157Z,99570.75
2023-03-06T21:19:59.155Z,99561.19
2023-03-06T21:22:25.678Z,99559.94
2023-03-06T21:24:52.269Z,99565.88
2023-03-06T21:27:18.887Z,99561.28
2023-03-06T21:29:45.444Z,99537.66
2023-03-06T21:32:11.984Z,99559.56
2023-03-06T21:34:39.854Z,99553.72
2023-03-06T21:37:06.382Z,99537.78
2023-03-06T21:39:32.940Z,99543.66
2023-03-06T21:41:59.465Z,99551.78
2023-03-06T21:44:26.071Z,99543.06
2023-03-06T21:46:52.573Z,99543.63
2023-03-06T21:49:19.480Z,99519.28
2023-03-06T21:51:47.638Z,99526.84
2023-03-06T21:54:14.159Z,99526.84
2023-03-06T21:56:40.704Z,99524.03
2023-03-06T21:59:07.233Z,99522.88
2023-03-06T22:01:33.973Z,99511.28
2023-03-06T22:04:00.651Z,99511.59
2023-03-06T22:06:29.055Z,99509.63
2023-03-06T22:08:58.317Z,99476.84
2023-03-06T22:11:26.309Z,99492.22
2023-03-06T22:13:52.867Z,99490.19
2023-03-06T22:16:19.956Z,99441.81
2023-03-06T22:18:47.489Z,99493.09
2023-03-06T22:21:16.224Z,99483.59
2023-03-06T22:23:43.232Z,99462.47
2023-03-06T22:26:12.510Z,99479.94
2023-03-06T22:28:39.617Z,99418.97
2023-03-06T22:31:08.152Z,99445.41
2023-03-06T22:33:35.187Z,99467.97
2023-03-06T22:36:02.366Z,99461.91
2023-03-06T22:38:28.902Z,99460.41
2023-03-06T22:40:56.405Z,99457.19
2023-03-06T22:43:24.294Z,99457.53
2023-03-06T22:45:50.803Z,99448.31
2023-03-06T22:48:17.335Z,99426.34
2023-03-06T22:50:44.184Z,99442.97
2023-03-06T22:53:10.998Z,99440.59
2023-03-06T22:55:37.514Z,99437.88
2023-03-06T22:58:04.058Z,99436.94
2023-03-06T23:00:31.950Z,99433.59
2023-03-06T23:02:58.452Z,99433.59
2023-03-06T23:05:29.159Z,99420.44
2023-03-06T23:07:56.108Z,99417.84
2023-03-06T23:10:22.616Z,99407.88
2023-03-06T23:13:07.835Z,99412.53
2023-03-06T23:15:54.203Z,99377.41
2023-03-06T23:18:39.819Z,99406.59
2023-03-06T23:21:25.407Z,99407.66
2023-03-06T23:24:10.720Z,99395.69
2023-03-06T23:26:37.324Z,99395.19
2023-03-06T23:29:03.880Z,99397.44
2023-03-06T23:31:31.871Z,99368.88
2023-03-06T23:34:00.386Z,99391.28
2023-03-06T23:36:28.174Z,99398.41
2023-03-06T23:38:54.932Z,99389.84
2023-03-06T23:41:22.893Z,99388.69
2023-03-06T23:43:50.710Z,99393.53
2023-03-06T23:46:20.375Z,99390.81
2023-03-06T23:48:48.341Z,99386.19
2023-03-06T23:51:17.392Z,99384.63
2023-03-06T23:53:45.064Z,99380.50
2023-03-06T23:56:12.624Z,99384.03
2023-03-06T23:58:39.825Z,99372.88
